Terminal Aerodrome Forecast
Issued by NWS Cleveland, OH

Home | Current Version | Previous Version | Graphics & Text | Print | Product List | Glossary Off
Versions: 1 2 3 4 5 6 7 8 9 10 11 12 13 14 15 16 17 18 19 20 21 22 23 24

000
FTUS41 KCLE 041140
TAFMFD
TAF
KMFD 041140Z 0412/0512 15008KT P6SM SCT050 BKN150
     FM041500 19006KT P6SM VCSH BKN025
     FM041900 19006KT P6SM VCTS BKN040CB
     FM050000 14003KT P6SM SCT050 BKN250
     FM050700 VRB03KT 4SM BR SCT050 BKN120=

USA.gov is the U.S. government's official web portal to all federal, state and local government web resources and services.